Time;durP1;ratioP1;P1;durP2;ratioP2;P2;SDS_P1;SDS_P2;PMS_P1;PMS_P2;Temp;Humidity;BMP_temperature;BMP_pressure;BME280_temperature;BME280_humidity;BME280_pressure;Samples;Min_cycle;Max_cycle;Signal;HPM_P1;HPM_P2
2021/08/31 00:00:16;;;;;;;10.80;7.55;;;15.40;97.50;;;;;;5025265;28;20035;-64
2021/08/31 00:02:48;;;;;;;10.73;6.97;;;15.40;97.60;;;;;;5026640;28;20033;-66
2021/08/31 00:05:23;;;;;;;10.52;7.65;;;15.40;97.60;;;;;;5025303;28;20029;-65
2021/08/31 00:07:49;;;;;;;11.02;7.35;;;15.30;97.50;;;;;;5022843;28;20037;-68
2021/08/31 00:10:21;;;;;;;12.50;7.40;;;15.30;97.50;;;;;;5025345;28;20407;-66
2021/08/31 00:12:56;;;;;;;13.05;7.82;;;15.30;97.60;;;;;;5010580;28;20025;-65
2021/08/31 00:15:28;;;;;;;11.05;7.55;;;15.30;97.60;;;;;;5008837;28;20033;-65
2021/08/31 00:17:56;;;;;;;9.27;6.90;;;15.20;97.50;;;;;;5024115;28;20052;-65
2021/08/31 00:20:24;;;;;;;13.93;7.57;;;15.20;97.50;;;;;;5027337;28;20156;-65
2021/08/31 00:22:55;;;;;;;;;;;15.20;97.70;;;;;;5028259;28;20355;-64
2021/08/31 00:25:58;;;;;;;15.27;8.02;;;15.10;97.50;;;;;;5028450;28;19909;-63
2021/08/31 00:28:29;;;;;;;11.90;7.38;;;15.10;97.60;;;;;;5027553;28;20174;-65
2021/08/31 00:31:04;;;;;;;9.85;7.45;;;15.10;97.60;;;;;;5009719;28;20108;-66
2021/08/31 00:33:42;;;;;;;10.52;7.43;;;15.10;97.50;;;;;;5024976;28;20025;-66
2021/08/31 00:36:10;;;;;;;12.02;7.47;;;15.00;97.50;;;;;;5023505;28;20100;-66
2021/08/31 00:38:56;;;;;;;10.68;6.68;;;15.00;97.70;;;;;;5009433;28;20026;-63
2021/08/31 00:41:27;;;;;;;13.95;7.85;;;15.00;97.60;;;;;;5028381;28;20037;-67
2021/08/31 00:43:58;;;;;;;9.05;7.00;;;15.00;97.70;;;;;;5025831;28;20025;-64
2021/08/31 00:46:50;;;;;;;10.55;7.40;;;15.00;97.80;;;;;;5025764;28;20060;-64
2021/08/31 00:49:24;;;;;;;13.65;8.23;;;15.00;97.80;;;;;;5027109;28;20048;-66
2021/08/31 00:51:51;;;;;;;13.70;7.97;;;15.00;97.80;;;;;;5025610;28;20056;-66
2021/08/31 00:54:24;;;;;;;12.18;8.23;;;14.90;97.80;;;;;;5026739;28;20488;-64
2021/08/31 00:56:57;;;;;;;12.23;8.00;;;14.90;97.80;;;;;;5026134;28;20045;-64
2021/08/31 00:59:26;;;;;;;12.15;7.22;;;14.90;97.90;;;;;;5025272;28;20036;-65
2021/08/31 01:02:12;;;;;;;11.13;7.90;;;14.80;97.90;;;;;;5007888;28;20107;-63
2021/08/31 01:04:38;;;;;;;12.10;7.68;;;14.90;98.00;;;;;;5023552;28;20447;-65
2021/08/31 01:07:07;;;;;;;12.40;7.75;;;14.90;98.00;;;;;;5024850;28;20391;-65
2021/08/31 01:09:37;;;;;;;10.88;7.10;;;14.80;97.90;;;;;;5024986;28;20403;-67
2021/08/31 01:12:05;;;;;;;10.13;7.33;;;14.90;97.90;;;;;;5025321;28;20033;-64
2021/08/31 01:14:40;;;;;;;9.93;7.00;;;14.80;97.90;;;;;;5026591;28;20026;-68
2021/08/31 01:17:09;;;;;;;8.93;6.80;;;14.80;97.90;;;;;;5024976;28;20060;-67
2021/08/31 01:19:51;;;;;;;12.20;7.25;;;14.80;97.90;;;;;;5025803;28;20369;-66
2021/08/31 01:22:37;;;;;;;11.32;7.55;;;14.80;97.90;;;;;;5025760;28;20490;-66
2021/08/31 01:25:08;;;;;;;11.45;7.35;;;14.80;98.00;;;;;;5026756;28;20041;-63
2021/08/31 01:27:48;;;;;;;12.00;7.78;;;14.80;98.00;;;;;;5024317;28;20040;-65
2021/08/31 01:30:23;;;;;;;11.27;7.35;;;14.80;98.10;;;;;;5024323;28;20026;-68
2021/08/31 01:32:59;;;;;;;10.80;7.43;;;14.80;98.10;;;;;;5029110;28;20029;-66
2021/08/31 01:35:36;;;;;;;10.70;7.47;;;14.70;98.00;;;;;;5028427;28;20021;-66
2021/08/31 01:38:10;;;;;;;9.95;7.20;;;14.70;98.10;;;;;;5031416;28;20166;-66
2021/08/31 01:40:36;;;;;;;11.27;7.35;;;14.70;98.10;;;;;;5028969;28;20083;-68
2021/08/31 01:43:02;;;;;;;12.43;7.70;;;14.60;98.20;;;;;;5028532;28;20022;-68
2021/08/31 01:45:50;;;;;;;12.70;7.95;;;14.70;98.20;;;;;;5028948;28;20061;-67
2021/08/31 01:48:25;;;;;;;11.32;7.88;;;14.70;98.10;;;;;;5029965;28;20115;-66
2021/08/31 01:50:54;;;;;;;12.38;7.75;;;14.60;98.20;;;;;;5029686;28;20486;-66
2021/08/31 01:56:50;;;;;;;11.80;7.68;;;14.60;98.30;;;;;;5027556;28;20033;-66
2021/08/31 01:59:30;;;;;;;17.42;8.55;;;14.60;98.30;;;;;;5026401;28;20034;-68
2021/08/31 02:01:56;;;;;;;10.45;7.40;;;14.50;98.30;;;;;;5026012;28;20091;-69
2021/08/31 02:04:24;;;;;;;13.73;8.80;;;14.50;98.40;;;;;;5027907;28;20434;-66
2021/08/31 02:06:53;;;;;;;13.50;8.00;;;14.40;98.50;;;;;;5030572;28;20029;-66
2021/08/31 02:09:26;;;;;;;11.93;8.52;;;14.40;98.60;;;;;;5028322;28;20079;-67
2021/08/31 02:11:52;;;;;;;13.43;7.65;;;14.40;98.50;;;;;;5031418;28;20034;-66
2021/08/31 02:14:39;;;;;;;14.27;8.73;;;14.40;98.60;;;;;;5033669;28;20068;-68
2021/08/31 02:17:08;;;;;;;11.63;7.80;;;14.40;98.60;;;;;;5017017;28;20033;-66
2021/08/31 02:19:38;;;;;;;12.82;8.15;;;14.40;98.60;;;;;;5032274;28;20036;-63
2021/08/31 02:22:04;;;;;;;14.13;8.52;;;14.40;98.50;;;;;;5033434;28;20111;-65
2021/08/31 02:24:37;;;;;;;11.57;7.90;;;14.40;98.60;;;;;;5035649;28;20495;-64
2021/08/31 02:27:11;;;;;;;15.10;8.75;;;14.40;98.50;;;;;;5032551;28;20030;-66
2021/08/31 02:29:40;;;;;;;16.50;8.80;;;14.40;98.60;;;;;;5026974;28;20129;-66
2021/08/31 02:32:06;;;;;;;11.82;8.45;;;14.40;98.50;;;;;;5030150;28;20029;-66
2021/08/31 02:34:33;;;;;;;12.15;8.10;;;14.40;98.50;;;;;;5028044;28;20554;-67
2021/08/31 02:37:02;;;;;;;11.30;7.43;;;14.30;98.50;;;;;;5029178;28;20021;-65
2021/08/31 02:39:33;;;;;;;11.68;8.18;;;14.40;98.60;;;;;;5028417;28;20104;-65
2021/08/31 02:42:04;;;;;;;13.15;8.63;;;14.30;98.60;;;;;;5030239;28;20391;-69
2021/08/31 02:44:32;;;;;;;16.20;9.48;;;14.30;98.60;;;;;;5028776;28;20029;-66
2021/08/31 02:46:58;;;;;;;13.57;8.35;;;14.30;98.50;;;;;;5029802;28;20037;-67
2021/08/31 02:49:24;;;;;;;12.13;7.70;;;14.20;98.70;;;;;;5010995;28;20057;-66
2021/08/31 02:52:05;;;;;;;24.02;8.68;;;14.30;98.60;;;;;;5028297;28;20029;-67
2021/08/31 02:54:31;;;;;;;13.45;8.63;;;14.30;98.60;;;;;;5025955;28;20031;-66
2021/08/31 02:57:00;;;;;;;13.52;8.60;;;14.20;98.50;;;;;;5027939;28;20032;-66
2021/08/31 02:59:30;;;;;;;15.10;8.65;;;14.20;98.60;;;;;;5009812;28;20037;-66
2021/08/31 03:02:08;;;;;;;12.20;8.45;;;14.20;98.50;;;;;;5030270;28;20036;-66
2021/08/31 03:04:36;;;;;;;14.23;8.27;;;14.20;98.60;;;;;;5031457;28;20079;-66
2021/08/31 03:07:07;;;;;;;15.27;8.77;;;14.20;98.60;;;;;;5028958;28;20492;-69
2021/08/31 03:09:43;;;;;;;12.00;8.82;;;14.20;98.60;;;;;;5028797;28;20037;-66
2021/08/31 03:12:09;;;;;;;13.25;9.10;;;14.20;98.60;;;;;;5026762;28;20017;-66
2021/08/31 03:14:39;;;;;;;14.65;8.88;;;14.20;98.60;;;;;;5029663;28;20404;-65
2021/08/31 03:17:05;;;;;;;13.48;8.50;;;14.20;98.60;;;;;;5026751;28;20031;-67
2021/08/31 03:19:31;;;;;;;13.38;8.55;;;14.10;98.60;;;;;;5028459;28;20022;-66
2021/08/31 03:22:00;;;;;;;16.40;9.07;;;14.00;98.60;;;;;;5027395;28;20126;-66
2021/08/31 03:24:27;;;;;;;13.52;8.48;;;14.10;98.70;;;;;;5026049;28;20045;-66
2021/08/31 03:26:56;;;;;;;16.30;9.68;;;14.00;98.60;;;;;;5027227;28;20561;-67
2021/08/31 03:29:25;;;;;;;15.52;9.35;;;14.00;98.60;;;;;;5028323;28;20036;-66
2021/08/31 03:32:03;;;;;;;14.68;8.93;;;14.00;98.60;;;;;;5028351;28;20701;-66
2021/08/31 03:34:32;;;;;;;12.98;8.80;;;14.00;98.70;;;;;;5026410;28;20052;-69
2021/08/31 03:37:03;;;;;;;14.00;8.55;;;14.00;98.70;;;;;;5027771;28;20151;-66
2021/08/31 03:39:29;;;;;;;;;;;14.00;98.60;;;;;;5028480;28;20037;-67
2021/08/31 03:42:00;;;;;;;19.05;9.90;;;13.90;98.70;;;;;;5027216;28;19913;-66
2021/08/31 03:44:32;;;;;;;16.67;9.48;;;13.90;98.60;;;;;;5028767;28;20399;-65
2021/08/31 03:47:00;;;;;;;15.13;9.32;;;13.90;98.70;;;;;;5026453;28;20039;-66
2021/08/31 03:49:26;;;;;;;12.35;8.63;;;13.90;98.80;;;;;;5026984;28;20037;-66
2021/08/31 03:51:52;;;;;;;18.38;9.35;;;13.90;98.70;;;;;;5027151;28;20017;-68
2021/08/31 03:54:26;;;;;;;14.95;9.48;;;13.90;98.70;;;;;;5027837;28;20033;-66
2021/08/31 03:56:54;;;;;;;14.32;9.20;;;13.90;98.70;;;;;;5024726;28;20064;-67
2021/08/31 03:59:23;;;;;;;15.80;10.05;;;13.90;98.70;;;;;;5025178;28;20030;-66
2021/08/31 04:01:49;;;;;;;16.80;9.90;;;13.80;98.60;;;;;;5025211;28;20494;-66
2021/08/31 04:04:15;;;;;;;13.10;9.13;;;13.80;98.70;;;;;;5025987;28;20057;-68
2021/08/31 04:06:44;;;;;;;16.92;11.43;;;13.80;98.80;;;;;;5026130;28;20029;-67
2021/08/31 04:09:22;;;;;;;14.27;9.23;;;13.80;98.80;;;;;;5027362;28;20063;-66
2021/08/31 04:12:01;;;;;;;12.73;9.00;;;13.70;98.90;;;;;;5027762;28;20598;-67
2021/08/31 04:14:27;;;;;;;13.38;9.35;;;13.80;98.90;;;;;;5007477;28;20041;-68
2021/08/31 04:17:07;;;;;;;12.13;9.20;;;13.70;99.00;;;;;;5024964;28;20484;-67
2021/08/31 04:22:22;;;;;;;14.55;9.65;;;13.70;99.10;;;;;;5026867;28;20430;-65
2021/08/31 04:24:50;;;;;;;16.70;9.70;;;13.70;99.10;;;;;;5027935;28;20029;-65
2021/08/31 04:27:19;;;;;;;16.20;9.45;;;13.70;99.10;;;;;;5007801;28;20033;-66
2021/08/31 04:29:55;;;;;;;15.00;9.27;;;13.70;99.00;;;;;;5025797;28;20044;-67
2021/08/31 04:32:29;;;;;;;16.15;10.27;;;13.70;99.00;;;;;;5021274;28;20034;-68
2021/08/31 04:34:57;;;;;;;14.48;10.80;;;13.70;99.00;;;;;;5009495;28;20033;-67
2021/08/31 04:37:26;;;;;;;;;;;13.70;99.00;;;;;;5028548;28;20052;-66
2021/08/31 04:39:58;;;;;;;14.68;9.18;;;13.70;99.00;;;;;;5027074;28;20287;-68
2021/08/31 04:42:27;;;;;;;16.08;9.60;;;13.70;98.90;;;;;;5024143;28;20083;-68
2021/08/31 04:45:02;;;;;;;14.23;9.48;;;13.70;99.00;;;;;;5026810;28;20029;-66
2021/08/31 04:47:30;;;;;;;15.45;9.90;;;13.70;98.90;;;;;;5022878;28;20028;-67
2021/08/31 04:50:04;;;;;;;14.65;9.55;;;13.70;99.10;;;;;;5026510;28;20029;-66
2021/08/31 04:52:30;;;;;;;13.70;8.93;;;13.70;99.00;;;;;;5025725;28;20022;-67
2021/08/31 04:55:25;;;;;;;14.82;9.38;;;13.70;99.10;;;;;;5027968;28;20025;-65
2021/08/31 04:57:58;;;;;;;17.73;10.15;;;13.70;99.10;;;;;;5025241;28;20045;-66
2021/08/31 05:00:33;;;;;;;15.48;9.73;;;13.70;99.00;;;;;;5028232;28;20029;-69
2021/08/31 05:03:06;;;;;;;16.10;9.32;;;13.70;99.10;;;;;;5025770;28;20037;-66
2021/08/31 05:05:32;;;;;;;16.60;9.40;;;13.70;99.10;;;;;;5027337;28;20025;-67
2021/08/31 05:08:11;;;;;;;13.25;8.85;;;13.70;99.10;;;;;;5011706;28;20606;-67
2021/08/31 05:10:37;;;;;;;15.30;9.18;;;13.80;99.10;;;;;;4983965;28;1313165;-68
2021/08/31 05:13:03;;;;;;;13.70;8.82;;;13.80;99.20;;;;;;5031073;28;20495;-67
2021/08/31 05:15:37;;;;;;;13.50;8.60;;;13.80;99.10;;;;;;5032096;28;20416;-68
2021/08/31 05:18:08;;;;;;;14.27;9.40;;;13.80;99.00;;;;;;5032179;28;20117;-67
2021/08/31 05:20:43;;;;;;;13.18;8.93;;;13.80;99.00;;;;;;5031689;28;20125;-68
2021/08/31 05:23:11;;;;;;;14.25;9.60;;;13.90;99.00;;;;;;5013844;28;20530;-67
2021/08/31 05:25:38;;;;;;;13.48;8.65;;;13.80;98.90;;;;;;5031941;28;20396;-68
2021/08/31 05:28:25;;;;;;;14.35;9.57;;;13.80;99.00;;;;;;5030301;28;20387;-69
2021/08/31 05:30:54;;;;;;;14.35;9.50;;;13.90;99.00;;;;;;5013992;28;20022;-67
2021/08/31 05:33:29;;;;;;;14.95;9.32;;;13.90;99.00;;;;;;5030591;28;20468;-66
2021/08/31 05:35:58;;;;;;;12.90;9.18;;;13.90;99.00;;;;;;5029904;28;20041;-68
2021/08/31 05:38:30;;;;;;;15.18;9.68;;;14.00;98.90;;;;;;5032210;28;20095;-67
2021/08/31 05:41:04;;;;;;;17.08;10.02;;;14.00;98.90;;;;;;5009912;28;20100;-67
2021/08/31 05:43:33;;;;;;;12.48;9.00;;;14.00;98.80;;;;;;5013476;28;20037;-66
2021/08/31 05:46:04;;;;;;;16.40;10.18;;;14.00;98.80;;;;;;5031738;28;20179;-68
2021/08/31 05:48:41;;;;;;;14.45;9.13;;;14.10;98.80;;;;;;5033109;28;20033;-66
2021/08/31 05:51:15;;;;;;;15.85;9.55;;;14.10;98.80;;;;;;5032124;28;20056;-66
2021/08/31 05:53:56;;;;;;;12.80;8.80;;;14.10;99.10;;;;;;5032928;28;20030;-67
2021/08/31 05:56:32;;;;;;;17.05;9.07;;;14.10;98.90;;;;;;5027979;28;20033;-67
2021/08/31 05:59:03;;;;;;;15.23;9.27;;;14.10;98.90;;;;;;5031114;28;20029;-68
2021/08/31 06:02:05;;;;;;;16.00;9.00;;;14.10;98.80;;;;;;5012266;28;20048;-68
2021/08/31 06:04:36;;;;;;;14.35;8.52;;;14.20;98.90;;;;;;5033348;28;20560;-67
2021/08/31 06:07:12;;;;;;;15.85;9.32;;;14.20;98.90;;;;;;5032736;28;20033;-70
2021/08/31 06:09:47;;;;;;;15.25;8.60;;;14.20;99.00;;;;;;5029916;28;20041;-69
2021/08/31 06:12:17;;;;;;;13.18;8.50;;;14.20;99.00;;;;;;5017374;28;20041;-67
2021/08/31 06:14:48;;;;;;;13.35;8.88;;;14.30;99.00;;;;;;5028776;28;20037;-67
2021/08/31 06:17:27;;;;;;;10.55;7.45;;;14.30;98.90;;;;;;5030765;28;20021;-68
2021/08/31 06:19:56;;;;;;;11.52;8.25;;;14.40;98.90;;;;;;5030569;28;20029;-67
2021/08/31 06:22:22;;;;;;;13.35;8.05;;;14.40;98.90;;;;;;5029019;28;20053;-67
2021/08/31 06:24:57;;;;;;;12.48;7.38;;;14.50;98.80;;;;;;5029735;28;20068;-67
2021/08/31 06:27:34;;;;;;;12.80;8.85;;;14.50;98.90;;;;;;5029802;28;20034;-69
2021/08/31 06:30:06;;;;;;;15.60;9.63;;;14.50;98.90;;;;;;5032035;28;20025;-68
2021/08/31 06:32:37;;;;;;;12.55;7.45;;;14.50;98.90;;;;;;5030877;28;20033;-68
2021/08/31 06:35:21;;;;;;;12.32;7.78;;;14.60;98.90;;;;;;5033412;28;20392;-69
2021/08/31 06:37:49;;;;;;;10.98;7.30;;;14.60;98.90;;;;;;5032026;28;20032;-71
2021/08/31 06:40:35;;;;;;;13.00;8.55;;;14.70;98.90;;;;;;5014593;28;20033;-68
2021/08/31 06:43:09;;;;;;;13.20;7.57;;;14.70;99.00;;;;;;5030530;28;20088;-69
2021/08/31 06:45:38;;;;;;;11.30;7.75;;;14.70;99.20;;;;;;5029495;28;20033;-69
2021/08/31 06:48:04;;;;;;;12.68;7.78;;;14.70;99.00;;;;;;5025722;28;20057;-70
2021/08/31 06:50:34;;;;;;;12.30;7.95;;;14.80;99.00;;;;;;5026183;28;20136;-69
2021/08/31 06:53:05;;;;;;;10.98;7.60;;;14.80;99.00;;;;;;5026788;28;20033;-69
2021/08/31 06:55:31;;;;;;;;;;;14.90;99.00;;;;;;5028101;28;20043;-68
2021/08/31 06:57:57;;;;;;;11.82;6.88;;;14.90;99.00;;;;;;5028457;28;19917;-68
2021/08/31 07:00:28;;;;;;;11.70;7.18;;;14.90;99.10;;;;;;5012071;28;20052;-72
2021/08/31 07:02:54;;;;;;;12.45;7.88;;;15.10;99.10;;;;;;5029016;28;20489;-66
2021/08/31 07:05:20;;;;;;;12.93;7.97;;;15.20;98.90;;;;;;5029260;28;20057;-66
2021/08/31 07:08:01;;;;;;;13.80;7.95;;;15.20;98.90;;;;;;4999773;28;20057;-70
2021/08/31 07:10:36;;;;;;;14.10;9.10;;;15.20;99.00;;;;;;5028978;28;20040;-68
2021/08/31 07:13:02;;;;;;;10.63;7.70;;;15.20;98.90;;;;;;5029277;28;20028;-67
2021/08/31 07:15:31;;;;;;;12.35;8.32;;;15.30;99.00;;;;;;5029283;28;20029;-68
2021/08/31 07:18:07;;;;;;;13.40;8.35;;;15.30;99.10;;;;;;5029077;28;20053;-69
2021/08/31 07:20:36;;;;;;;11.07;7.18;;;15.30;98.90;;;;;;5029119;28;20025;-67
2021/08/31 07:23:06;;;;;;;11.23;6.95;;;15.40;98.90;;;;;;5014325;28;20032;-67
2021/08/31 07:25:35;;;;;;;15.48;8.00;;;15.50;98.80;;;;;;5031668;28;20117;-67
2021/08/31 07:28:23;;;;;;;12.35;6.75;;;15.50;98.80;;;;;;5030209;28;20476;-68
2021/08/31 07:30:52;;;;;;;10.65;6.70;;;15.50;98.70;;;;;;5029303;28;20041;-68
2021/08/31 07:33:34;;;;;;;12.68;7.13;;;15.60;98.70;;;;;;5031009;28;20144;-67
2021/08/31 07:36:07;;;;;;;;;;;15.60;98.60;;;;;;5030622;28;20025;-67
2021/08/31 07:38:40;;;;;;;13.85;7.38;;;15.70;98.70;;;;;;5011396;28;19912;-69
2021/08/31 07:41:14;;;;;;;11.90;6.20;;;15.70;98.60;;;;;;5029136;28;20407;-67
2021/08/31 07:43:41;;;;;;;14.70;6.80;;;15.70;98.70;;;;;;5031993;28;20272;-67
2021/08/31 07:46:28;;;;;;;10.90;6.30;;;15.80;98.60;;;;;;5026451;28;20067;-67
2021/08/31 07:48:58;;;;;;;12.25;7.18;;;15.90;98.60;;;;;;5028635;28;20710;-67
2021/08/31 07:51:30;;;;;;;13.15;6.43;;;15.90;98.50;;;;;;5026653;28;20029;-67
2021/08/31 07:54:03;;;;;;;10.70;5.43;;;16.00;98.60;;;;;;5030451;28;20026;-69
2021/08/31 07:56:40;;;;;;;8.90;5.53;;;16.10;98.30;;;;;;5030879;28;20024;-71
2021/08/31 07:59:18;;;;;;;10.70;5.65;;;16.10;98.20;;;;;;5029997;28;20029;-69
2021/08/31 08:01:49;;;;;;;8.88;5.85;;;16.20;98.30;;;;;;5027959;28;20487;-66
2021/08/31 08:04:30;;;;;;;9.48;5.45;;;16.20;98.30;;;;;;5028654;28;20376;-69
2021/08/31 08:07:02;;;;;;;8.77;5.45;;;16.30;98.10;;;;;;5029595;28;20045;-68
2021/08/31 08:09:34;;;;;;;8.02;5.43;;;16.30;98.00;;;;;;5030628;28;20033;-70
2021/08/31 08:12:38;;;;;;;7.65;5.20;;;16.40;98.10;;;;;;5028980;28;20037;-70
2021/08/31 08:15:12;;;;;;;7.68;5.32;;;16.40;97.80;;;;;;5015586;28;20048;-69
2021/08/31 08:17:41;;;;;;;8.13;5.85;;;16.50;97.80;;;;;;5030263;28;20029;-67
2021/08/31 08:20:13;;;;;;;8.98;4.78;;;16.60;97.70;;;;;;5028965;28;20021;-69
2021/08/31 08:22:39;;;;;;;11.07;5.38;;;16.60;97.70;;;;;;5028756;28;20029;-69
2021/08/31 08:25:08;;;;;;;8.48;5.15;;;16.70;97.60;;;;;;5027743;28;20032;-67
2021/08/31 08:27:36;;;;;;;6.55;4.13;;;16.80;97.10;;;;;;5026442;28;20104;-68
2021/08/31 08:30:08;;;;;;;7.38;4.47;;;16.80;96.40;;;;;;5026644;28;20021;-68
2021/08/31 08:32:38;;;;;;;7.85;4.50;;;16.90;96.30;;;;;;5026767;28;20395;-69
2021/08/31 08:35:11;;;;;;;8.32;5.38;;;16.90;96.10;;;;;;5028231;28;20056;-68
2021/08/31 08:37:37;;;;;;;6.93;4.43;;;17.00;95.90;;;;;;5027095;28;20112;-70
2021/08/31 08:40:13;;;;;;;6.32;4.55;;;17.00;95.90;;;;;;5027723;28;20543;-66
2021/08/31 08:42:45;;;;;;;5.93;4.07;;;17.10;95.90;;;;;;5023954;28;20017;-68
2021/08/31 08:45:11;;;;;;;8.57;4.53;;;17.20;95.90;;;;;;5027321;28;20061;-67
2021/08/31 08:47:37;;;;;;;8.07;5.13;;;17.20;95.30;;;;;;5027845;28;20036;-66
2021/08/31 08:50:05;;;;;;;7.15;4.35;;;17.30;95.30;;;;;;5027557;28;20021;-66
2021/08/31 08:52:44;;;;;;;5.53;3.95;;;17.30;95.40;;;;;;5025876;28;20018;-66
2021/08/31 08:55:13;;;;;;;8.18;4.55;;;17.30;95.30;;;;;;5026086;28;20026;-67
2021/08/31 08:57:41;;;;;;;7.85;4.40;;;17.40;95.20;;;;;;5027633;28;20446;-67
2021/08/31 09:00:18;;;;;;;5.35;4.13;;;17.40;94.90;;;;;;5025916;28;20029;-68
2021/08/31 09:02:45;;;;;;;5.90;3.75;;;17.50;94.70;;;;;;5026226;28;20053;-68
2021/08/31 09:05:14;;;;;;;6.60;4.13;;;17.60;94.60;;;;;;5027382;28;20018;-68
2021/08/31 09:07:45;;;;;;;5.88;4.00;;;17.70;94.50;;;;;;5024292;28;20025;-68
2021/08/31 09:10:23;;;;;;;7.05;4.40;;;17.70;93.20;;;;;;5027556;28;20026;-67
2021/08/31 09:12:55;;;;;;;7.03;3.75;;;17.80;93.10;;;;;;5026960;28;20036;-68
2021/08/31 09:15:41;;;;;;;6.88;4.10;;;17.80;92.60;;;;;;5026260;28;20041;-68
2021/08/31 09:18:18;;;;;;;5.35;3.67;;;17.90;92.80;;;;;;5023674;28;20427;-69
2021/08/31 09:20:45;;;;;;;7.88;4.18;;;18.00;92.80;;;;;;5026619;28;20033;-68
2021/08/31 09:23:21;;;;;;;6.20;4.00;;;18.00;92.70;;;;;;5025103;28;20033;-68
2021/08/31 09:26:01;;;;;;;6.95;4.10;;;18.10;92.20;;;;;;5024001;28;20120;-70
2021/08/31 09:28:54;;;;;;;6.68;4.00;;;18.20;92.30;;;;;;5026138;28;20061;-70
2021/08/31 09:31:20;;;;;;;5.88;3.85;;;18.30;92.20;;;;;;5023112;28;20029;-71
2021/08/31 09:33:54;;;;;;;6.35;3.67;;;18.30;92.10;;;;;;5011722;28;20036;-68
2021/08/31 09:36:24;;;;;;;5.32;3.63;;;18.50;92.20;;;;;;5025322;28;20034;-65
2021/08/31 09:38:56;;;;;;;6.88;3.90;;;18.50;92.20;;;;;;5026908;28;20025;-66
2021/08/31 09:41:33;;;;;;;7.40;4.03;;;18.60;91.30;;;;;;5025607;28;20033;-65
2021/08/31 09:44:07;;;;;;;5.60;4.00;;;18.60;91.30;;;;;;5007275;28;20037;-67
2021/08/31 09:46:54;;;;;;;6.55;4.13;;;18.70;91.20;;;;;;5027837;28;20033;-68
2021/08/31 09:49:31;;;;;;;8.00;3.83;;;18.80;90.90;;;;;;5026264;28;20030;-67
2021/08/31 09:52:10;;;;;;;5.65;3.95;;;18.80;90.80;;;;;;5028091;28;20041;-66
2021/08/31 09:54:49;;;;;;;8.13;3.97;;;18.80;90.50;;;;;;5031632;28;20030;-67
2021/08/31 09:57:28;;;;;;;6.15;4.07;;;18.80;90.80;;;;;;5030823;28;20037;-66
2021/08/31 09:59:57;;;;;;;;;;;18.90;90.90;;;;;;5031308;28;20033;-66
2021/08/31 10:02:24;;;;;;;7.13;4.05;;;18.90;90.20;;;;;;5030316;28;19936;-66
2021/08/31 10:05:04;;;;;;;5.32;4.00;;;19.00;90.20;;;;;;5031090;28;20398;-66
2021/08/31 10:10:46;;;;;;;5.07;4.00;;;19.00;89.50;;;;;;5028655;28;20037;-70
2021/08/31 10:13:38;;;;;;;8.90;4.07;;;19.10;89.50;;;;;;5030260;28;20029;-66
2021/08/31 10:16:07;;;;;;;5.93;4.20;;;19.10;89.00;;;;;;5010412;28;20472;-68
2021/08/31 10:18:35;;;;;;;8.23;4.20;;;19.20;89.70;;;;;;5009755;28;20120;-70
2021/08/31 10:21:08;;;;;;;8.27;4.28;;;19.20;87.20;;;;;;5028301;28;20400;-67
2021/08/31 10:23:52;;;;;;;7.72;4.43;;;19.30;88.00;;;;;;5030248;28;20112;-66
2021/08/31 10:26:31;;;;;;;6.95;4.32;;;19.40;87.90;;;;;;5027928;28;20562;-66
2021/08/31 10:29:28;;;;;;;5.85;3.85;;;19.60;84.80;;;;;;5028787;28;20029;-77
2021/08/31 10:31:59;;;;;;;5.47;3.75;;;19.80;84.00;;;;;;5030376;28;20029;-72
2021/08/31 10:34:41;;;;;;;6.03;3.78;;;19.90;84.60;;;;;;5033012;28;20021;-73
2021/08/31 10:37:42;;;;;;;6.28;4.18;;;20.00;82.50;;;;;;5028504;28;20080;-75
2021/08/31 10:40:08;;;;;;;6.25;4.03;;;20.10;83.70;;;;;;5029037;28;20013;-74
2021/08/31 10:42:40;;;;;;;6.35;3.88;;;20.10;84.20;;;;;;5012390;28;20506;-76
2021/08/31 10:46:00;;;;;;;5.95;3.70;;;20.20;83.70;;;;;;4994788;28;20191;-74
2021/08/31 10:48:34;;;;;;;5.55;4.25;;;20.30;83.20;;;;;;5002107;28;20033;-76
2021/08/31 10:51:17;;;;;;;6.55;3.70;;;20.30;83.10;;;;;;5030170;28;20029;-76
2021/08/31 10:53:48;;;;;;;5.50;3.88;;;20.40;82.40;;;;;;5012320;28;20105;-76
2021/08/31 10:56:25;;;;;;;8.63;4.50;;;20.30;83.10;;;;;;5033335;28;20057;-76
2021/08/31 10:58:59;;;;;;;6.28;4.10;;;20.30;83.30;;;;;;5010376;28;20116;-76
2021/08/31 11:02:01;;;;;;;7.55;4.20;;;20.30;83.40;;;;;;5029176;28;20500;-74
2021/08/31 11:04:33;;;;;;;7.22;4.15;;;20.40;84.10;;;;;;5011167;28;20484;-76
2021/08/31 11:07:03;;;;;;;7.00;4.05;;;20.50;83.40;;;;;;5028773;28;20029;-75
2021/08/31 11:09:38;;;;;;;6.18;4.38;;;20.70;83.60;;;;;;5025776;28;20472;-76
2021/08/31 11:12:10;;;;;;;6.88;4.32;;;20.70;81.60;;;;;;5027510;28;20517;-75
2021/08/31 11:14:48;;;;;;;8.30;3.95;;;20.70;81.10;;;;;;5008610;28;20049;-77
2021/08/31 11:17:37;;;;;;;5.68;3.58;;;20.90;82.70;;;;;;5012602;28;20530;-76
2021/08/31 11:20:26;;;;;;;5.28;3.95;;;22.30;77.50;;;;;;4996223;28;20033;-77
2021/08/31 11:23:25;;;;;;;5.30;3.72;;;23.10;74.90;;;;;;5038572;28;20072;-80
2021/08/31 11:25:58;;;;;;;9.07;4.50;;;25.50;71.50;;;;;;5017088;28;20025;-73
2021/08/31 11:28:33;;;;;;;5.55;4.13;;;28.20;63.40;;;;;;5027254;28;20030;-72
2021/08/31 11:31:06;;;;;;;9.75;4.10;;;30.40;55.40;;;;;;5027923;28;20480;-74
2021/08/31 11:33:43;;;;;;;;;;;32.30;49.20;;;;;;5033372;28;20123;-80
2021/08/31 11:36:14;;;;;;;5.55;3.72;;;33.60;45.60;;;;;;5013873;28;19909;-79
2021/08/31 11:38:43;;;;;;;5.50;3.50;;;33.80;43.60;;;;;;5017658;28;20402;-77
2021/08/31 11:41:37;;;;;;;5.27;3.73;;;33.20;44.10;;;;;;5027453;28;20726;-75
2021/08/31 11:44:24;;;;;;;4.72;3.65;;;31.10;45.10;;;;;;5023935;28;20026;-74
2021/08/31 11:46:56;;;;;;;6.28;3.85;;;30.70;47.10;;;;;;5013382;28;20037;-74
2021/08/31 11:49:22;;;;;;;6.18;3.67;;;31.50;44.70;;;;;;5010964;28;20491;-72
2021/08/31 11:51:54;;;;;;;5.10;4.22;;;32.20;45.10;;;;;;5028081;28;20492;-71
2021/08/31 11:54:24;;;;;;;6.55;3.80;;;32.60;44.10;;;;;;5026055;28;20090;-72
2021/08/31 11:56:56;;;;;;;5.10;3.13;;;32.90;43.30;;;;;;5010750;28;20039;-73
2021/08/31 12:00:01;;;;;;;6.15;4.10;;;31.70;42.00;;;;;;5028165;28;20031;-71
2021/08/31 12:02:29;;;;;;;6.03;4.10;;;29.50;45.20;;;;;;5026594;28;20085;-70
2021/08/31 12:05:05;;;;;;;5.18;4.00;;;27.80;49.80;;;;;;5028719;28;20335;-72
2021/08/31 12:07:38;;;;;;;6.55;4.18;;;27.30;50.40;;;;;;5027875;28;20503;-72
2021/08/31 12:10:14;;;;;;;6.65;3.83;;;27.30;51.30;;;;;;5028637;28;20041;-72
2021/08/31 12:12:52;;;;;;;6.15;3.60;;;27.30;52.20;;;;;;5007231;28;20072;-73
2021/08/31 12:18:50;;;;;;;5.88;3.83;;;27.00;52.00;;;;;;4999817;28;20302;-69
2021/08/31 12:21:20;;;;;;;4.70;3.47;;;26.50;53.50;;;;;;5025433;28;20083;-69
2021/08/31 12:23:47;;;;;;;5.87;3.83;;;26.30;54.50;;;;;;5025647;28;21007;-69
2021/08/31 12:26:36;;;;;;;5.55;3.72;;;26.40;54.30;;;;;;5028667;28;20075;-71
2021/08/31 12:29:12;;;;;;;4.57;3.65;;;26.60;53.60;;;;;;5028134;28;20029;-73
2021/08/31 12:32:02;;;;;;;5.13;3.55;;;27.30;54.80;;;;;;5026560;28;20053;-74
2021/08/31 12:34:39;;;;;;;4.45;3.72;;;27.90;52.60;;;;;;5027679;28;20104;-74
2021/08/31 12:37:32;;;;;;;4.70;3.55;;;28.70;51.60;;;;;;5026088;28;20438;-76
2021/08/31 12:40:21;;;;;;;5.22;3.65;;;29.30;49.30;;;;;;5013702;28;20120;-75
2021/08/31 12:42:52;;;;;;;4.70;4.00;;;29.70;47.40;;;;;;5010848;28;20495;-75
2021/08/31 12:45:28;;;;;;;4.43;3.42;;;29.70;45.30;;;;;;5014053;28;20048;-74
2021/08/31 12:48:01;;;;;;;5.47;3.95;;;29.00;47.00;;;;;;5026685;28;20021;-74
2021/08/31 12:50:28;;;;;;;7.80;3.70;;;28.30;49.40;;;;;;5026883;28;20646;-74
2021/08/31 12:53:44;;;;;;;5.20;3.88;;;28.40;48.40;;;;;;5028359;28;20063;-76
2021/08/31 12:56:13;;;;;;;7.60;5.35;;;29.10;47.60;;;;;;5026317;28;20394;-74
2021/08/31 12:58:59;;;;;;;5.90;4.40;;;29.30;47.70;;;;;;5009572;28;20045;-75
2021/08/31 13:01:27;;;;;;;4.55;3.60;;;30.30;48.50;;;;;;5022521;28;20036;-75
2021/08/31 13:03:54;;;;;;;4.80;3.65;;;31.30;45.40;;;;;;5026709;28;20033;-75
2021/08/31 13:10:28;;;;;;;6.38;3.88;;;31.50;42.80;;;;;;5001897;28;20033;-75
2021/08/31 13:12:54;;;;;;;10.95;4.28;;;31.10;41.60;;;;;;5008913;28;20026;-74
2021/08/31 13:15:20;;;;;;;4.38;3.58;;;29.60;43.80;;;;;;5010585;28;20282;-74
2021/08/31 13:17:46;;;;;;;5.35;3.63;;;28.40;47.30;;;;;;5008933;28;20387;-73
2021/08/31 13:20:16;;;;;;;4.95;3.47;;;27.30;49.10;;;;;;5010512;28;20038;-74
2021/08/31 13:22:45;;;;;;;5.60;3.90;;;26.30;50.90;;;;;;5027988;28;20493;-74
2021/08/31 13:25:20;;;;;;;5.40;3.83;;;25.70;52.20;;;;;;5026960;28;20033;-76
2021/08/31 13:27:46;;;;;;;5.07;3.72;;;25.40;53.80;;;;;;5028824;28;20087;-75
2021/08/31 13:30:19;;;;;;;5.28;3.47;;;25.10;53.70;;;;;;5013404;28;20375;-73
2021/08/31 13:32:47;;;;;;;6.15;4.10;;;24.70;54.10;;;;;;5013785;28;20120;-74